sensor_id;sensor_type;location;lat;lon;timestamp;P1;P2;P0
27143;PMS1003;14672;50.250;8.312;2024-01-30T00:02:10;51.33;48.67;26.67
27143;PMS1003;14672;50.250;8.312;2024-01-30T00:04:35;59.33;52.67;24.67
27143;PMS1003;14672;50.250;8.312;2024-01-30T00:07:01;43.33;42.67;26.67
27143;PMS1003;14672;50.250;8.312;2024-01-30T00:09:27;54.00;50.50;28.00
27143;PMS1003;14672;50.250;8.312;2024-01-30T00:11:53;54.00;46.67;23.33
27143;PMS1003;14672;50.250;8.312;2024-01-30T00:14:18;44.00;40.67;23.33
27143;PMS1003;14672;50.250;8.312;2024-01-30T00:16:44;45.33;43.33;27.33
27143;PMS1003;14672;50.250;8.312;2024-01-30T00:19:11;50.67;46.67;28.00
27143;PMS1003;14672;50.250;8.312;2024-01-30T00:21:37;56.00;50.50;27.00
27143;PMS1003;14672;50.250;8.312;2024-01-30T00:24:03;54.67;48.00;26.67
27143;PMS1003;14672;50.250;8.312;2024-01-30T00:26:29;52.00;47.50;24.00
27143;PMS1003;14672;50.250;8.312;2024-01-30T00:28:55;51.33;48.00;24.00
27143;PMS1003;14672;50.250;8.312;2024-01-30T00:31:21;52.00;42.67;24.00
27143;PMS1003;14672;50.250;8.312;2024-01-30T00:33:46;50.67;46.00;26.00
27143;PMS1003;14672;50.250;8.312;2024-01-30T00:36:12;67.33;51.33;28.00
27143;PMS1003;14672;50.250;8.312;2024-01-30T00:38:38;50.50;45.00;24.00
27143;PMS1003;14672;50.250;8.312;2024-01-30T00:41:06;51.00;50.00;26.50
27143;PMS1003;14672;50.250;8.312;2024-01-30T00:43:33;44.00;43.50;24.00
27143;PMS1003;14672;50.250;8.312;2024-01-30T00:45:59;48.00;40.00;22.00
27143;PMS1003;14672;50.250;8.312;2024-01-30T00:48:25;59.50;52.00;28.50
27143;PMS1003;14672;50.250;8.312;2024-01-30T00:50:51;61.50;56.00;31.50
27143;PMS1003;14672;50.250;8.312;2024-01-30T00:53:16;50.00;46.00;25.33
27143;PMS1003;14672;50.250;8.312;2024-01-30T00:55:45;50.50;44.00;26.50
27143;PMS1003;14672;50.250;8.312;2024-01-30T00:58:11;45.33;41.33;24.67
27143;PMS1003;14672;50.250;8.312;2024-01-30T01:00:38;44.00;38.00;20.00
27143;PMS1003;14672;50.250;8.312;2024-01-30T01:03:04;44.00;41.50;24.00
27143;PMS1003;14672;50.250;8.312;2024-01-30T01:05:30;44.67;44.67;24.00
27143;PMS1003;14672;50.250;8.312;2024-01-30T01:07:56;42.67;40.67;23.33
27143;PMS1003;14672;50.250;8.312;2024-01-30T01:10:24;43.00;41.50;21.50
27143;PMS1003;14672;50.250;8.312;2024-01-30T01:12:50;43.33;38.67;22.00
27143;PMS1003;14672;50.250;8.312;2024-01-30T01:15:16;43.33;42.67;24.67
27143;PMS1003;14672;50.250;8.312;2024-01-30T01:17:42;56.67;49.33;26.00
27143;PMS1003;14672;50.250;8.312;2024-01-30T01:20:08;48.67;44.67;22.00
27143;PMS1003;14672;50.250;8.312;2024-01-30T01:22:35;55.50;41.50;22.00
27143;PMS1003;14672;50.250;8.312;2024-01-30T01:25:03;48.50;43.00;22.50
27143;PMS1003;14672;50.250;8.312;2024-01-30T01:27:32;44.50;38.50;22.00
27143;PMS1003;14672;50.250;8.312;2024-01-30T01:29:59;45.00;44.50;24.50
27143;PMS1003;14672;50.250;8.312;2024-01-30T01:32:25;42.50;38.50;22.50
27143;PMS1003;14672;50.250;8.312;2024-01-30T01:34:51;42.67;41.33;23.33
27143;PMS1003;14672;50.250;8.312;2024-01-30T01:37:17;49.33;46.67;22.00
27143;PMS1003;14672;50.250;8.312;2024-01-30T01:39:43;58.00;44.67;24.00
27143;PMS1003;14672;50.250;8.312;2024-01-30T01:42:08;55.33;44.67;23.33
27143;PMS1003;14672;50.250;8.312;2024-01-30T01:44:34;58.00;44.00;24.00
27143;PMS1003;14672;50.250;8.312;2024-01-30T01:47:00;49.50;45.50;26.00
27143;PMS1003;14672;50.250;8.312;2024-01-30T01:49:27;43.33;40.00;22.67
27143;PMS1003;14672;50.250;8.312;2024-01-30T01:51:55;52.80;44.80;24.00
27143;PMS1003;14672;50.250;8.312;2024-01-30T01:54:25;46.50;38.50;22.00
27143;PMS1003;14672;50.250;8.312;2024-01-30T01:56:53;53.00;48.50;25.00
27143;PMS1003;14672;50.250;8.312;2024-01-30T01:59:19;56.40;54.00;28.00
27143;PMS1003;14672;50.250;8.312;2024-01-30T02:01:45;59.50;53.00;30.00
27143;PMS1003;14672;50.250;8.312;2024-01-30T02:04:14;58.50;44.50;25.50
27143;PMS1003;14672;50.250;8.312;2024-01-30T02:06:41;51.20;46.00;24.00
27143;PMS1003;14672;50.250;8.312;2024-01-30T02:09:09;54.40;50.40;27.20
27143;PMS1003;14672;50.250;8.312;2024-01-30T02:11:35;53.20;45.20;26.80
27143;PMS1003;14672;50.250;8.312;2024-01-30T02:14:04;49.00;44.00;26.00
27143;PMS1003;14672;50.250;8.312;2024-01-30T02:16:30;54.80;48.00;25.20
27143;PMS1003;14672;50.250;8.312;2024-01-30T02:18:56;42.00;38.00;20.50
27143;PMS1003;14672;50.250;8.312;2024-01-30T02:21:22;48.67;44.67;24.00
27143;PMS1003;14672;50.250;8.312;2024-01-30T02:23:48;55.50;50.00;26.00
27143;PMS1003;14672;50.250;8.312;2024-01-30T02:26:15;58.00;50.50;27.50
27143;PMS1003;14672;50.250;8.312;2024-01-30T02:28:41;44.00;42.00;25.33
27143;PMS1003;14672;50.250;8.312;2024-01-30T02:31:07;46.00;40.67;23.33
27143;PMS1003;14672;50.250;8.312;2024-01-30T02:33:33;46.67;45.33;22.67
27143;PMS1003;14672;50.250;8.312;2024-01-30T02:35:58;50.67;46.67;24.00
27143;PMS1003;14672;50.250;8.312;2024-01-30T02:38:24;57.33;46.00;24.67
27143;PMS1003;14672;50.250;8.312;2024-01-30T02:40:51;52.00;47.00;28.00
27143;PMS1003;14672;50.250;8.312;2024-01-30T02:43:17;48.00;45.50;25.50
27143;PMS1003;14672;50.250;8.312;2024-01-30T02:45:43;47.33;45.33;24.00
27143;PMS1003;14672;50.250;8.312;2024-01-30T02:48:09;48.67;44.00;24.67
27143;PMS1003;14672;50.250;8.312;2024-01-30T02:50:35;46.00;44.67;24.00
27143;PMS1003;14672;50.250;8.312;2024-01-30T02:53:04;46.50;37.00;22.00
27143;PMS1003;14672;50.250;8.312;2024-01-30T02:55:29;59.50;50.00;28.00
27143;PMS1003;14672;50.250;8.312;2024-01-30T02:57:55;50.67;46.67;24.00
27143;PMS1003;14672;50.250;8.312;2024-01-30T03:00:21;51.33;49.33;29.33
27143;PMS1003;14672;50.250;8.312;2024-01-30T03:02:47;47.33;45.33;25.33
27143;PMS1003;14672;50.250;8.312;2024-01-30T03:05:12;55.33;45.33;27.33
27143;PMS1003;14672;50.250;8.312;2024-01-30T03:07:38;48.00;41.33;23.33
27143;PMS1003;14672;50.250;8.312;2024-01-30T03:10:04;47.00;46.00;24.00
27143;PMS1003;14672;50.250;8.312;2024-01-30T03:12:31;49.00;39.00;23.50
27143;PMS1003;14672;50.250;8.312;2024-01-30T03:14:57;44.50;42.00;21.50
27143;PMS1003;14672;50.250;8.312;2024-01-30T03:17:23;47.50;40.00;21.50
27143;PMS1003;14672;50.250;8.312;2024-01-30T03:19:49;49.50;45.50;23.00
27143;PMS1003;14672;50.250;8.312;2024-01-30T03:22:15;54.50;48.00;27.50
27143;PMS1003;14672;50.250;8.312;2024-01-30T03:24:42;57.00;46.50;26.00
27143;PMS1003;14672;50.250;8.312;2024-01-30T03:27:08;55.50;48.00;28.00
27143;PMS1003;14672;50.250;8.312;2024-01-30T03:29:34;45.00;43.00;25.00
27143;PMS1003;14672;50.250;8.312;2024-01-30T03:32:00;52.67;48.00;26.00
27143;PMS1003;14672;50.250;8.312;2024-01-30T03:34:26;54.80;47.60;26.00
27143;PMS1003;14672;50.250;8.312;2024-01-30T03:36:51;46.00;40.67;23.33
27143;PMS1003;14672;50.250;8.312;2024-01-30T03:39:17;50.00;44.67;27.33
27143;PMS1003;14672;50.250;8.312;2024-01-30T03:41:43;50.00;44.00;23.33
27143;PMS1003;14672;50.250;8.312;2024-01-30T03:44:09;46.00;44.00;22.67
27143;PMS1003;14672;50.250;8.312;2024-01-30T03:46:35;57.20;51.20;28.00
27143;PMS1003;14672;50.250;8.312;2024-01-30T03:49:01;61.00;53.00;27.50
27143;PMS1003;14672;50.250;8.312;2024-01-30T03:51:27;56.00;50.00;28.00
27143;PMS1003;14672;50.250;8.312;2024-01-30T03:53:53;49.33;43.33;26.00
27143;PMS1003;14672;50.250;8.312;2024-01-30T03:56:18;50.00;43.33;22.67
27143;PMS1003;14672;50.250;8.312;2024-01-30T03:58:44;42.00;42.00;26.00
27143;PMS1003;14672;50.250;8.312;2024-01-30T04:01:16;54.00;47.33;28.00
27143;PMS1003;14672;50.250;8.312;2024-01-30T04:03:42;50.00;46.00;24.00
27143;PMS1003;14672;50.250;8.312;2024-01-30T04:06:09;65.50;53.50;26.00
27143;PMS1003;14672;50.250;8.312;2024-01-30T04:08:35;47.50;45.00;21.50
27143;PMS1003;14672;50.250;8.312;2024-01-30T04:11:04;53.00;47.00;26.00
27143;PMS1003;14672;50.250;8.312;2024-01-30T04:13:31;51.20;50.40;26.00
27143;PMS1003;14672;50.250;8.312;2024-01-30T04:16:00;52.00;41.50;20.50
27143;PMS1003;14672;50.250;8.312;2024-01-30T04:18:27;56.00;50.40;25.20
27143;PMS1003;14672;50.250;8.312;2024-01-30T04:20:53;54.50;49.00;25.50
27143;PMS1003;14672;50.250;8.312;2024-01-30T04:23:19;50.00;48.50;24.50
27143;PMS1003;14672;50.250;8.312;2024-01-30T04:25:45;48.67;41.33;22.00
27143;PMS1003;14672;50.250;8.312;2024-01-30T04:28:12;51.33;44.00;24.00
27143;PMS1003;14672;50.250;8.312;2024-01-30T04:30:38;41.00;36.50;20.00
27143;PMS1003;14672;50.250;8.312;2024-01-30T04:33:04;41.50;38.50;20.50
27143;PMS1003;14672;50.250;8.312;2024-01-30T04:35:30;44.00;40.67;20.67
27143;PMS1003;14672;50.250;8.312;2024-01-30T04:37:56;50.67;46.67;26.67
27143;PMS1003;14672;50.250;8.312;2024-01-30T04:40:21;48.00;36.67;22.00
27143;PMS1003;14672;50.250;8.312;2024-01-30T04:42:47;49.33;44.00;20.00
27143;PMS1003;14672;50.250;8.312;2024-01-30T04:45:13;51.33;45.33;24.00
27143;PMS1003;14672;50.250;8.312;2024-01-30T04:47:39;45.50;43.00;20.50
27143;PMS1003;14672;50.250;8.312;2024-01-30T04:50:08;50.67;45.33;24.00
27143;PMS1003;14672;50.250;8.312;2024-01-30T04:52:34;45.00;38.50;20.00
27143;PMS1003;14672;50.250;8.312;2024-01-30T04:55:04;45.00;42.50;24.00
27143;PMS1003;14672;50.250;8.312;2024-01-30T04:57:30;45.50;38.50;21.00
27143;PMS1003;14672;50.250;8.312;2024-01-30T04:59:56;46.50;42.00;22.50
27143;PMS1003;14672;50.250;8.312;2024-01-30T05:02:22;44.00;43.33;22.00
27143;PMS1003;14672;50.250;8.312;2024-01-30T05:04:48;53.33;48.00;26.67
27143;PMS1003;14672;50.250;8.312;2024-01-30T05:07:14;50.00;48.00;22.00
27143;PMS1003;14672;50.250;8.312;2024-01-30T05:09:39;53.33;43.33;22.67
27143;PMS1003;14672;50.250;8.312;2024-01-30T05:12:05;39.33;39.33;23.33
27143;PMS1003;14672;50.250;8.312;2024-01-30T05:14:32;53.50;48.50;24.00
27143;PMS1003;14672;50.250;8.312;2024-01-30T05:16:58;38.67;35.33;20.67
27143;PMS1003;14672;50.250;8.312;2024-01-30T05:19:23;53.33;42.67;22.00
27143;PMS1003;14672;50.250;8.312;2024-01-30T05:21:49;50.00;48.00;24.67
27143;PMS1003;14672;50.250;8.312;2024-01-30T05:24:15;49.50;42.50;22.00
27143;PMS1003;14672;50.250;8.312;2024-01-30T05:26:41;46.00;45.33;22.00
27143;PMS1003;14672;50.250;8.312;2024-01-30T05:29:07;52.67;46.67;24.00
27143;PMS1003;14672;50.250;8.312;2024-01-30T05:31:36;51.33;45.33;22.67
27143;PMS1003;14672;50.250;8.312;2024-01-30T05:34:02;50.00;41.50;22.00
27143;PMS1003;14672;50.250;8.312;2024-01-30T05:36:28;50.00;43.33;24.00
27143;PMS1003;14672;50.250;8.312;2024-01-30T05:38:54;54.00;49.33;24.67
27143;PMS1003;14672;50.250;8.312;2024-01-30T05:41:20;49.00;40.00;24.00
27143;PMS1003;14672;50.250;8.312;2024-01-30T05:43:49;58.50;52.50;25.50
27143;PMS1003;14672;50.250;8.312;2024-01-30T05:46:15;47.33;43.33;25.33
27143;PMS1003;14672;50.250;8.312;2024-01-30T05:48:41;51.33;46.67;27.33
27143;PMS1003;14672;50.250;8.312;2024-01-30T05:51:07;45.33;44.67;24.67
27143;PMS1003;14672;50.250;8.312;2024-01-30T05:53:33;58.00;50.50;28.00
27143;PMS1003;14672;50.250;8.312;2024-01-30T05:56:03;42.50;40.50;22.50
27143;PMS1003;14672;50.250;8.312;2024-01-30T05:58:32;46.50;44.00;21.50
27143;PMS1003;14672;50.250;8.312;2024-01-30T06:00:58;48.00;44.00;24.00
27143;PMS1003;14672;50.250;8.312;2024-01-30T06:03:23;51.33;48.00;26.00
27143;PMS1003;14672;50.250;8.312;2024-01-30T06:05:49;46.00;39.33;18.67
27143;PMS1003;14672;50.250;8.312;2024-01-30T06:08:15;48.67;44.67;24.00
27143;PMS1003;14672;50.250;8.312;2024-01-30T06:10:41;44.67;42.67;24.00
27143;PMS1003;14672;50.250;8.312;2024-01-30T06:13:06;46.67;40.00;19.33
27143;PMS1003;14672;50.250;8.312;2024-01-30T06:15:32;54.00;47.33;23.33
27143;PMS1003;14672;50.250;8.312;2024-01-30T06:17:58;43.33;38.00;22.00
27143;PMS1003;14672;50.250;8.312;2024-01-30T06:20:24;51.50;45.50;25.00
27143;PMS1003;14672;50.250;8.312;2024-01-30T06:22:50;52.67;50.00;22.00
27143;PMS1003;14672;50.250;8.312;2024-01-30T06:25:19;54.67;46.00;25.33
27143;PMS1003;14672;50.250;8.312;2024-01-30T06:27:50;49.50;45.50;24.50
27143;PMS1003;14672;50.250;8.312;2024-01-30T06:30:16;49.33;43.33;26.67
27143;PMS1003;14672;50.250;8.312;2024-01-30T06:32:42;42.00;40.00;22.67
27143;PMS1003;14672;50.250;8.312;2024-01-30T06:35:08;52.67;46.67;27.33
27143;PMS1003;14672;50.250;8.312;2024-01-30T06:37:35;54.50;48.50;24.50
27143;PMS1003;14672;50.250;8.312;2024-01-30T06:40:02;60.50;55.00;32.50
27143;PMS1003;14672;50.250;8.312;2024-01-30T06:42:29;63.60;56.40;32.00
27143;PMS1003;14672;50.250;8.312;2024-01-30T06:44:55;58.00;54.50;32.00
27143;PMS1003;14672;50.250;8.312;2024-01-30T06:47:27;48.50;47.50;30.00
27143;PMS1003;14672;50.250;8.312;2024-01-30T06:49:54;59.00;52.00;28.50
27143;PMS1003;14672;50.250;8.312;2024-01-30T06:52:20;58.67;48.67;28.00
27143;PMS1003;14672;50.250;8.312;2024-01-30T06:54:45;64.00;56.00;28.00
27143;PMS1003;14672;50.250;8.312;2024-01-30T06:57:11;59.00;52.67;28.33
27143;PMS1003;14672;50.250;8.312;2024-01-30T06:59:39;52.50;49.50;27.50
27143;PMS1003;14672;50.250;8.312;2024-01-30T07:02:12;61.60;56.40;28.00
27143;PMS1003;14672;50.250;8.312;2024-01-30T07:04:38;64.00;56.25;28.75
27143;PMS1003;14672;50.250;8.312;2024-01-30T07:07:05;60.75;54.00;28.50
27143;PMS1003;14672;50.250;8.312;2024-01-30T07:09:31;58.75;53.25;29.00
27143;PMS1003;14672;50.250;8.312;2024-01-30T07:11:57;63.67;53.33;26.67
27143;PMS1003;14672;50.250;8.312;2024-01-30T07:14:25;55.25;52.00;29.50
27143;PMS1003;14672;50.250;8.312;2024-01-30T07:16:51;52.00;49.33;27.67
27143;PMS1003;14672;50.250;8.312;2024-01-30T07:19:16;57.00;45.33;26.00
27143;PMS1003;14672;50.250;8.312;2024-01-30T07:21:42;57.33;53.33;27.67
27143;PMS1003;14672;50.250;8.312;2024-01-30T07:24:09;53.00;47.00;29.50
27143;PMS1003;14672;50.250;8.312;2024-01-30T07:26:34;55.00;48.33;26.00
27143;PMS1003;14672;50.250;8.312;2024-01-30T07:29:01;54.25;52.75;27.75
27143;PMS1003;14672;50.250;8.312;2024-01-30T07:31:27;49.75;47.25;30.00
27143;PMS1003;14672;50.250;8.312;2024-01-30T07:33:52;47.33;44.00;27.00
27143;PMS1003;14672;50.250;8.312;2024-01-30T07:36:19;53.00;47.75;27.75
27143;PMS1003;14672;50.250;8.312;2024-01-30T07:38:45;43.00;42.00;25.67
27143;PMS1003;14672;50.250;8.312;2024-01-30T07:41:11;42.25;40.25;22.75
27143;PMS1003;14672;50.250;8.312;2024-01-30T07:43:38;53.00;49.33;26.67
27143;PMS1003;14672;50.250;8.312;2024-01-30T07:46:04;50.00;45.75;25.25
27143;PMS1003;14672;50.250;8.312;2024-01-30T07:48:31;46.50;42.50;23.00
27143;PMS1003;14672;50.250;8.312;2024-01-30T07:50:59;47.25;43.25;21.75
27143;PMS1003;14672;50.250;8.312;2024-01-30T07:53:25;56.00;52.67;27.00
27143;PMS1003;14672;50.250;8.312;2024-01-30T07:55:51;51.33;47.33;23.33
27143;PMS1003;14672;50.250;8.312;2024-01-30T07:58:17;50.50;46.50;26.00
27143;PMS1003;14672;50.250;8.312;2024-01-30T08:00:44;45.50;41.25;21.50
27143;PMS1003;14672;50.250;8.312;2024-01-30T08:03:10;43.25;39.25;21.25
27143;PMS1003;14672;50.250;8.312;2024-01-30T08:05:36;56.33;45.67;26.33
27143;PMS1003;14672;50.250;8.312;2024-01-30T08:08:03;51.50;46.00;23.75
27143;PMS1003;14672;50.250;8.312;2024-01-30T08:10:29;48.75;44.25;24.75
27143;PMS1003;14672;50.250;8.312;2024-01-30T08:12:54;50.67;46.67;27.00
27143;PMS1003;14672;50.250;8.312;2024-01-30T08:15:20;49.00;43.00;21.67
27143;PMS1003;14672;50.250;8.312;2024-01-30T08:17:46;40.33;37.00;23.00
27143;PMS1003;14672;50.250;8.312;2024-01-30T08:20:12;39.33;38.00;21.33
27143;PMS1003;14672;50.250;8.312;2024-01-30T08:22:39;43.50;41.75;22.00
27143;PMS1003;14672;50.250;8.312;2024-01-30T08:25:05;46.50;43.25;24.00
27143;PMS1003;14672;50.250;8.312;2024-01-30T08:27:32;42.00;40.50;23.50
27143;PMS1003;14672;50.250;8.312;2024-01-30T08:30:00;50.25;45.75;21.50
27143;PMS1003;14672;50.250;8.312;2024-01-30T08:32:27;43.00;40.00;24.25
27143;PMS1003;14672;50.250;8.312;2024-01-30T08:34:52;39.00;36.33;23.00
27143;PMS1003;14672;50.250;8.312;2024-01-30T08:37:18;40.33;36.33;23.00
27143;PMS1003;14672;50.250;8.312;2024-01-30T08:39:44;37.00;37.00;21.00
27143;PMS1003;14672;50.250;8.312;2024-01-30T08:42:10;50.33;38.00;23.00
27143;PMS1003;14672;50.250;8.312;2024-01-30T08:44:35;46.00;41.67;21.00
27143;PMS1003;14672;50.250;8.312;2024-01-30T08:47:01;39.00;36.33;22.33
27143;PMS1003;14672;50.250;8.312;2024-01-30T08:49:28;41.50;40.00;22.75
27143;PMS1003;14672;50.250;8.312;2024-01-30T08:51:54;42.00;39.33;21.33
27143;PMS1003;14672;50.250;8.312;2024-01-30T08:54:19;44.67;42.67;21.00
27143;PMS1003;14672;50.250;8.312;2024-01-30T08:56:45;43.00;37.00;20.67
27143;PMS1003;14672;50.250;8.312;2024-01-30T08:59:11;42.67;38.00;21.67
27143;PMS1003;14672;50.250;8.312;2024-01-30T09:01:37;46.67;39.67;18.67
27143;PMS1003;14672;50.250;8.312;2024-01-30T09:04:02;39.33;36.33;17.00
27143;PMS1003;14672;50.250;8.312;2024-01-30T09:06:28;37.33;34.00;17.00
27143;PMS1003;14672;50.250;8.312;2024-01-30T09:08:54;40.00;40.00;19.00
27143;PMS1003;14672;50.250;8.312;2024-01-30T09:11:20;38.00;35.33;19.67
27143;PMS1003;14672;50.250;8.312;2024-01-30T09:13:46;45.00;37.67;19.00
27143;PMS1003;14672;50.250;8.312;2024-01-30T09:16:12;35.67;31.33;17.67
27143;PMS1003;14672;50.250;8.312;2024-01-30T09:18:37;43.33;35.67;19.00
27143;PMS1003;14672;50.250;8.312;2024-01-30T09:21:04;31.75;29.75;18.00
27143;PMS1003;14672;50.250;8.312;2024-01-30T09:23:30;35.75;34.25;17.25
27143;PMS1003;14672;50.250;8.312;2024-01-30T09:25:56;35.67;31.00;17.00
27143;PMS1003;14672;50.250;8.312;2024-01-30T09:28:21;32.00;31.67;18.00
27143;PMS1003;14672;50.250;8.312;2024-01-30T09:30:50;34.50;33.50;18.00
27143;PMS1003;14672;50.250;8.312;2024-01-30T09:33:16;38.67;34.67;17.33
27143;PMS1003;14672;50.250;8.312;2024-01-30T09:35:42;33.00;31.33;17.67
27143;PMS1003;14672;50.250;8.312;2024-01-30T09:38:07;32.33;30.33;16.00
27143;PMS1003;14672;50.250;8.312;2024-01-30T09:40:33;30.67;29.67;17.33
27143;PMS1003;14672;50.250;8.312;2024-01-30T09:42:59;33.00;31.67;18.67
27143;PMS1003;14672;50.250;8.312;2024-01-30T09:45:25;33.50;33.50;18.00
27143;PMS1003;14672;50.250;8.312;2024-01-30T09:47:51;33.25;30.75;18.50
27143;PMS1003;14672;50.250;8.312;2024-01-30T09:50:18;38.75;35.75;18.25
27143;PMS1003;14672;50.250;8.312;2024-01-30T09:52:45;38.25;35.25;20.00
27143;PMS1003;14672;50.250;8.312;2024-01-30T09:55:12;30.50;29.00;16.00
27143;PMS1003;14672;50.250;8.312;2024-01-30T09:57:38;38.00;36.25;19.75
27143;PMS1003;14672;50.250;8.312;2024-01-30T10:00:05;35.75;33.75;21.50
27143;PMS1003;14672;50.250;8.312;2024-01-30T10:02:35;40.00;36.50;18.00
27143;PMS1003;14672;50.250;8.312;2024-01-30T10:05:01;47.00;39.50;19.50
27143;PMS1003;14672;50.250;8.312;2024-01-30T10:07:27;37.75;34.00;17.75
27143;PMS1003;14672;50.250;8.312;2024-01-30T10:09:53;30.67;28.67;17.00
27143;PMS1003;14672;50.250;8.312;2024-01-30T10:12:21;40.00;33.25;18.00
27143;PMS1003;14672;50.250;8.312;2024-01-30T10:14:48;45.75;38.00;20.75
27143;PMS1003;14672;50.250;8.312;2024-01-30T10:17:14;36.67;35.33;20.00
27143;PMS1003;14672;50.250;8.312;2024-01-30T10:19:40;36.00;34.33;16.00
27143;PMS1003;14672;50.250;8.312;2024-01-30T10:22:07;38.75;36.25;20.75
27143;PMS1003;14672;50.250;8.312;2024-01-30T10:24:34;39.25;37.00;19.75
27143;PMS1003;14672;50.250;8.312;2024-01-30T10:27:00;35.33;35.00;20.00
27143;PMS1003;14672;50.250;8.312;2024-01-30T10:29:29;29.25;28.25;17.50
27143;PMS1003;14672;50.250;8.312;2024-01-30T10:31:58;35.50;32.75;18.50
27143;PMS1003;14672;50.250;8.312;2024-01-30T10:34:28;44.75;39.00;21.25
27143;PMS1003;14672;50.250;8.312;2024-01-30T10:37:10;35.75;35.00;17.75
27143;PMS1003;14672;50.250;8.312;2024-01-30T10:39:43;29.50;29.50;18.00
27143;PMS1003;14672;50.250;8.312;2024-01-30T10:42:14;34.25;33.25;17.00
27143;PMS1003;14672;50.250;8.312;2024-01-30T10:47:37;40.75;36.50;18.75
27143;PMS1003;14672;50.250;8.312;2024-01-30T10:50:18;37.75;33.00;20.25
27143;PMS1003;14672;50.250;8.312;2024-01-30T10:52:44;36.25;35.25;20.25
27143;PMS1003;14672;50.250;8.312;2024-01-30T10:55:11;36.50;34.00;19.25
27143;PMS1003;14672;50.250;8.312;2024-01-30T10:57:39;37.75;33.00;18.75
27143;PMS1003;14672;50.250;8.312;2024-01-30T11:00:06;36.75;35.00;19.25
27143;PMS1003;14672;50.250;8.312;2024-01-30T11:02:43;40.67;36.33;19.67
27143;PMS1003;14672;50.250;8.312;2024-01-30T11:05:11;37.75;35.00;19.75
27143;PMS1003;14672;50.250;8.312;2024-01-30T11:07:38;36.00;34.00;17.50
27143;PMS1003;14672;50.250;8.312;2024-01-30T11:10:06;39.50;35.00;18.75
27143;PMS1003;14672;50.250;8.312;2024-01-30T11:12:37;38.25;36.00;22.25
27143;PMS1003;14672;50.250;8.312;2024-01-30T11:15:15;42.75;33.50;18.25
27143;PMS1003;14672;50.250;8.312;2024-01-30T11:17:51;37.50;33.25;19.75
27143;PMS1003;14672;50.250;8.312;2024-01-30T11:22:57;34.50;31.00;18.25
27143;PMS1003;14672;50.250;8.312;2024-01-30T11:25:24;36.00;36.00;21.25
27143;PMS1003;14672;50.250;8.312;2024-01-30T11:27:54;34.50;34.25;18.00
27143;PMS1003;14672;50.250;8.312;2024-01-30T11:30:27;33.00;33.00;19.00
27143;PMS1003;14672;50.250;8.312;2024-01-30T11:32:59;34.50;32.75;17.25
27143;PMS1003;14672;50.250;8.312;2024-01-30T11:35:32;26.75;25.50;14.00
27143;PMS1003;14672;50.250;8.312;2024-01-30T11:37:59;35.00;32.50;17.50
27143;PMS1003;14672;50.250;8.312;2024-01-30T11:40:29;34.50;31.25;17.25
27143;PMS1003;14672;50.250;8.312;2024-01-30T11:42:56;34.00;32.75;18.50
27143;PMS1003;14672;50.250;8.312;2024-01-30T11:45:26;32.75;31.00;16.75
27143;PMS1003;14672;50.250;8.312;2024-01-30T11:47:53;37.50;33.00;17.00
27143;PMS1003;14672;50.250;8.312;2024-01-30T11:50:19;33.50;31.75;19.75
27143;PMS1003;14672;50.250;8.312;2024-01-30T11:52:46;32.50;31.00;17.50
27143;PMS1003;14672;50.250;8.312;2024-01-30T11:55:13;37.00;31.50;18.75
27143;PMS1003;14672;50.250;8.312;2024-01-30T11:57:40;34.75;32.00;17.25
27143;PMS1003;14672;50.250;8.312;2024-01-30T12:00:06;28.75;27.75;16.00
27143;PMS1003;14672;50.250;8.312;2024-01-30T12:02:50;37.00;33.75;18.00
27143;PMS1003;14672;50.250;8.312;2024-01-30T12:05:21;35.00;32.50;18.00
27143;PMS1003;14672;50.250;8.312;2024-01-30T12:07:48;35.00;30.50;16.00
27143;PMS1003;14672;50.250;8.312;2024-01-30T12:10:13;37.67;32.67;16.00
27143;PMS1003;14672;50.250;8.312;2024-01-30T12:12:44;29.50;28.25;14.75
27143;PMS1003;14672;50.250;8.312;2024-01-30T12:15:14;31.25;29.50;16.25
27143;PMS1003;14672;50.250;8.312;2024-01-30T12:17:42;25.50;23.50;13.25
27143;PMS1003;14672;50.250;8.312;2024-01-30T12:20:12;28.25;26.75;13.75
27143;PMS1003;14672;50.250;8.312;2024-01-30T12:22:40;25.75;24.50;15.25
27143;PMS1003;14672;50.250;8.312;2024-01-30T12:25:15;27.50;26.50;13.25
27143;PMS1003;14672;50.250;8.312;2024-01-30T12:27:43;28.00;27.00;14.25
27143;PMS1003;14672;50.250;8.312;2024-01-30T12:30:18;32.75;31.75;18.50
27143;PMS1003;14672;50.250;8.312;2024-01-30T12:32:45;29.75;27.00;16.25
27143;PMS1003;14672;50.250;8.312;2024-01-30T12:35:17;33.75;31.50;18.25
27143;PMS1003;14672;50.250;8.312;2024-01-30T12:37:45;27.00;25.50;14.25
27143;PMS1003;14672;50.250;8.312;2024-01-30T12:40:16;31.75;30.75;16.00
27143;PMS1003;14672;50.250;8.312;2024-01-30T12:42:42;28.25;25.50;14.50
27143;PMS1003;14672;50.250;8.312;2024-01-30T12:45:13;28.75;25.50;13.25
27143;PMS1003;14672;50.250;8.312;2024-01-30T12:47:40;35.75;34.50;20.25
27143;PMS1003;14672;50.250;8.312;2024-01-30T12:50:07;34.75;33.00;15.25
27143;PMS1003;14672;50.250;8.312;2024-01-30T12:52:34;32.00;29.00;16.00
27143;PMS1003;14672;50.250;8.312;2024-01-30T12:55:00;30.75;29.00;14.50
27143;PMS1003;14672;50.250;8.312;2024-01-30T12:57:26;34.00;30.00;17.00
27143;PMS1003;14672;50.250;8.312;2024-01-30T12:59:52;33.33;30.67;19.33
27143;PMS1003;14672;50.250;8.312;2024-01-30T13:02:18;28.67;28.67;18.00
27143;PMS1003;14672;50.250;8.312;2024-01-30T13:04:44;33.75;31.75;16.75
27143;PMS1003;14672;50.250;8.312;2024-01-30T13:07:10;34.67;31.00;17.33
27143;PMS1003;14672;50.250;8.312;2024-01-30T13:09:35;29.33;27.33;15.00
27143;PMS1003;14672;50.250;8.312;2024-01-30T13:12:01;39.00;33.75;18.25
27143;PMS1003;14672;50.250;8.312;2024-01-30T13:14:27;36.00;34.25;18.50
27143;PMS1003;14672;50.250;8.312;2024-01-30T13:16:53;29.67;28.00;20.00
27143;PMS1003;14672;50.250;8.312;2024-01-30T13:19:19;30.00;29.00;17.00
27143;PMS1003;14672;50.250;8.312;2024-01-30T13:21:45;38.00;34.33;18.33
27143;PMS1003;14672;50.250;8.312;2024-01-30T13:24:11;27.75;27.75;16.50
27143;PMS1003;14672;50.250;8.312;2024-01-30T13:26:37;33.00;30.33;17.33
27143;PMS1003;14672;50.250;8.312;2024-01-30T13:29:03;32.33;30.00;17.33
27143;PMS1003;14672;50.250;8.312;2024-01-30T13:31:28;32.33;28.67;17.67
27143;PMS1003;14672;50.250;8.312;2024-01-30T13:33:55;26.00;26.00;16.75
27143;PMS1003;14672;50.250;8.312;2024-01-30T13:36:21;30.00;29.50;16.00
27143;PMS1003;14672;50.250;8.312;2024-01-30T13:38:47;36.50;32.00;17.75
27143;PMS1003;14672;50.250;8.312;2024-01-30T13:41:13;30.75;29.00;15.25
27143;PMS1003;14672;50.250;8.312;2024-01-30T13:43:39;31.67;29.00;15.00
27143;PMS1003;14672;50.250;8.312;2024-01-30T13:46:05;35.00;29.67;17.33
27143;PMS1003;14672;50.250;8.312;2024-01-30T13:48:31;33.00;30.00;16.67
27143;PMS1003;14672;50.250;8.312;2024-01-30T13:50:57;32.75;29.50;18.25